createdAt,value
2019-02-03T00:00:49.833Z,205.07
2019-02-03T00:03:18.655Z,193.53
2019-02-03T00:05:47.137Z,201.87
2019-02-03T00:08:15.606Z,182.97
2019-02-03T00:10:44.040Z,187.90
2019-02-03T00:13:12.489Z,187.70
2019-02-03T00:15:40.999Z,197.70
2019-02-03T00:18:09.609Z,206.17
2019-02-03T00:20:38.043Z,204.00
2019-02-03T00:23:06.617Z,191.10
2019-02-03T00:25:35.137Z,180.63
2019-02-03T00:28:03.615Z,187.13
2019-02-03T00:30:32.798Z,189.07
2019-02-03T00:33:01.227Z,196.10
2019-02-03T00:35:29.662Z,173.27
2019-02-03T00:37:58.187Z,183.57
2019-02-03T00:40:26.661Z,190.33
2019-02-03T00:42:55.182Z,190.90
2019-02-03T00:45:24.082Z,187.87
2019-02-03T00:47:52.634Z,189.70
2019-02-03T00:50:21.116Z,193.37
2019-02-03T00:52:49.536Z,187.20
2019-02-03T00:55:18.550Z,184.73
2019-02-03T00:57:49.719Z,189.40
2019-02-03T01:00:18.775Z,189.13
2019-02-03T01:02:47.298Z,190.47
2019-02-03T01:05:18.058Z,182.83
2019-02-03T01:07:47.409Z,179.50
2019-02-03T01:10:18.629Z,169.10
2019-02-03T01:12:47.474Z,176.80
2019-02-03T01:15:16.256Z,179.27
2019-02-03T01:17:44.774Z,165.93
2019-02-03T01:20:15.450Z,175.73
2019-02-03T01:22:43.976Z,175.93
2019-02-03T01:25:15.955Z,165.33
2019-02-03T01:27:44.907Z,161.00
2019-02-03T01:30:19.103Z,154.33
2019-02-03T01:32:47.662Z,163.87
2019-02-03T01:35:16.256Z,173.83
2019-02-03T01:37:44.824Z,155.20
2019-02-03T01:40:16.275Z,160.00
2019-02-03T01:42:44.711Z,173.40
2019-02-03T01:45:18.718Z,159.67
2019-02-03T01:47:47.868Z,162.73
2019-02-03T01:50:16.325Z,162.33
2019-02-03T01:52:45.740Z,164.43
2019-02-03T01:55:19.477Z,161.70
2019-02-03T01:57:47.940Z,158.13
2019-02-03T02:00:21.761Z,164.83
2019-02-03T02:02:50.698Z,156.03
2019-02-03T02:05:19.691Z,153.37
2019-02-03T02:07:51.588Z,161.03
2019-02-03T02:10:20.841Z,158.23
2019-02-03T02:12:49.492Z,169.37
2019-02-03T02:15:21.798Z,172.87
2019-02-03T02:17:51.870Z,158.83
2019-02-03T02:20:22.766Z,165.50
2019-02-03T02:22:51.445Z,159.87
2019-02-03T02:25:19.940Z,171.50
2019-02-03T02:27:48.430Z,151.77
2019-02-03T02:30:22.382Z,162.37
2019-02-03T02:32:50.851Z,152.53
2019-02-03T02:35:19.911Z,162.70
2019-02-03T02:37:48.433Z,164.03
2019-02-03T02:40:19.322Z,155.57
2019-02-03T02:42:47.868Z,152.20
2019-02-03T02:45:17.481Z,157.87
2019-02-03T02:47:46.456Z,161.17
2019-02-03T02:50:27.714Z,148.93
2019-02-03T02:52:56.171Z,163.93
2019-02-03T02:55:24.690Z,158.80
2019-02-03T02:57:53.208Z,160.73
2019-02-03T03:00:23.764Z,169.60
2019-02-03T03:02:52.350Z,157.33
2019-02-03T03:05:20.935Z,162.77
2019-02-03T03:07:49.718Z,168.47
2019-02-03T03:10:20.376Z,165.53
2019-02-03T03:12:49.950Z,161.03
2019-02-03T03:15:20.843Z,162.80
2019-02-03T03:17:50.450Z,162.90
2019-02-03T03:20:21.183Z,161.27
2019-02-03T03:22:49.962Z,163.97
2019-02-03T03:25:22.697Z,160.60
2019-02-03T03:27:51.186Z,168.37
2019-02-03T03:30:24.698Z,166.10
2019-02-03T03:32:53.213Z,166.20
2019-02-03T03:35:22.241Z,157.13
2019-02-03T03:37:50.676Z,160.50
2019-02-03T03:40:21.745Z,166.63
2019-02-03T03:42:50.257Z,157.17
2019-02-03T03:45:19.304Z,160.90
2019-02-03T03:47:47.743Z,170.33
2019-02-03T03:50:16.893Z,168.80
2019-02-03T03:52:45.401Z,162.53
2019-02-03T03:55:14.206Z,173.73
2019-02-03T03:57:42.700Z,171.60
2019-02-03T04:00:17.230Z,163.17
2019-02-03T04:02:45.643Z,161.30
2019-02-03T04:05:14.734Z,159.03
2019-02-03T04:07:43.234Z,162.23
2019-02-03T04:10:20.468Z,163.83
2019-02-03T04:12:48.962Z,169.23
2019-02-03T04:15:19.339Z,174.03
2019-02-03T04:17:48.013Z,174.97
2019-02-03T04:20:19.536Z,166.97
2019-02-03T04:22:47.948Z,166.93
2019-02-03T04:25:16.899Z,158.27
2019-02-03T04:27:45.357Z,169.53
2019-02-03T04:30:20.105Z,171.17
2019-02-03T04:32:48.531Z,183.90
2019-02-03T04:35:16.994Z,171.17
2019-02-03T04:37:45.475Z,172.43
2019-02-03T04:40:16.947Z,179.03
2019-02-03T04:42:45.946Z,158.20
2019-02-03T04:45:16.824Z,156.83
2019-02-03T04:47:45.243Z,178.00
2019-02-03T04:50:16.632Z,166.17
2019-02-03T04:52:45.159Z,166.07
2019-02-03T04:55:16.454Z,179.93
2019-02-03T04:57:44.882Z,170.83
2019-02-03T05:00:18.981Z,176.47
2019-02-03T05:02:47.500Z,171.00
2019-02-03T05:05:16.068Z,160.97
2019-02-03T05:07:44.984Z,177.17
2019-02-03T05:10:15.694Z,185.43
2019-02-03T05:12:44.126Z,172.73
2019-02-03T05:15:23.573Z,160.30
2019-02-03T05:17:52.046Z,161.87
2019-02-03T05:20:22.722Z,161.60
2019-02-03T05:22:51.197Z,160.87
2019-02-03T05:25:19.634Z,172.93
2019-02-03T05:27:48.086Z,165.67
2019-02-03T05:30:22.413Z,164.07
2019-02-03T05:32:50.861Z,159.50
2019-02-03T05:35:19.882Z,165.67
2019-02-03T05:37:48.307Z,168.80
2019-02-03T05:40:17.297Z,163.40
2019-02-03T05:42:45.889Z,174.87
2019-02-03T05:45:19.730Z,175.67
2019-02-03T05:47:50.324Z,164.90
2019-02-03T05:50:22.353Z,176.20
2019-02-03T05:52:50.763Z,168.17
2019-02-03T05:55:20.192Z,163.27
2019-02-03T05:57:48.707Z,162.70
2019-02-03T06:00:27.599Z,173.27
2019-02-03T06:02:56.150Z,163.97
2019-02-03T06:05:24.637Z,171.63
2019-02-03T06:07:53.064Z,170.37
2019-02-03T06:10:21.519Z,174.20
2019-02-03T06:12:49.943Z,159.40
2019-02-03T06:15:18.917Z,163.00
2019-02-03T06:17:47.411Z,170.80
2019-02-03T06:20:18.125Z,163.73
2019-02-03T06:22:47.955Z,158.07
2019-02-03T06:25:17.506Z,156.93
2019-02-03T06:27:46.027Z,170.03
2019-02-03T06:30:45.927Z,162.00
2019-02-03T06:33:14.349Z,156.47
2019-02-03T06:35:42.807Z,165.33
2019-02-03T06:38:11.267Z,155.80
2019-02-03T06:40:39.722Z,150.53
2019-02-03T06:43:08.164Z,160.83
2019-02-03T06:45:41.149Z,149.73
2019-02-03T06:48:11.453Z,154.20
2019-02-03T06:50:40.804Z,164.33
2019-02-03T06:53:09.237Z,156.70
2019-02-03T06:55:37.690Z,152.37
2019-02-03T06:58:06.219Z,146.77
2019-02-03T07:00:34.637Z,143.10
2019-02-03T07:03:03.089Z,147.00
2019-02-03T07:05:31.642Z,147.63
2019-02-03T07:08:00.074Z,164.67
2019-02-03T07:10:28.499Z,144.93
2019-02-03T07:12:56.981Z,141.97
2019-02-03T07:15:25.463Z,141.97
2019-02-03T07:17:53.895Z,137.53
2019-02-03T07:20:22.536Z,137.53
2019-02-03T07:22:50.959Z,139.80
2019-02-03T07:25:19.446Z,141.07
2019-02-03T07:27:47.883Z,142.80
2019-02-03T07:30:21.062Z,133.77
2019-02-03T07:32:49.609Z,147.27
2019-02-03T07:35:18.047Z,146.83
2019-02-03T07:37:46.489Z,137.20
2019-02-03T07:40:20.221Z,137.13
2019-02-03T07:42:48.649Z,130.43
2019-02-03T07:45:17.168Z,124.43
2019-02-03T07:47:46.015Z,130.50
2019-02-03T07:50:16.074Z,120.13
2019-02-03T07:52:44.580Z,131.93
2019-02-03T07:55:14.094Z,132.63
2019-02-03T07:57:42.625Z,120.07
2019-02-03T08:00:21.930Z,136.63
2019-02-03T08:02:50.443Z,118.47
2019-02-03T08:05:19.260Z,124.37
2019-02-03T08:07:47.703Z,115.13
2019-02-03T08:10:26.246Z,116.70
2019-02-03T08:12:48.950Z,122.77
2019-02-03T08:15:18.648Z,106.10
2019-02-03T08:17:47.346Z,110.90
2019-02-03T08:20:18.912Z,111.10
2019-02-03T08:22:47.419Z,112.20
2019-02-03T08:25:17.693Z,116.33
2019-02-03T08:27:47.438Z,103.03
2019-02-03T08:30:21.628Z,98.03
2019-02-03T08:32:50.169Z,107.83
2019-02-03T08:35:20.045Z,95.63
2019-02-03T08:37:48.559Z,91.60
2019-02-03T08:40:22.453Z,99.13
2019-02-03T08:42:50.959Z,94.33
2019-02-03T08:45:21.331Z,105.30
2019-02-03T08:47:49.931Z,88.90
2019-02-03T08:50:20.526Z,98.73
2019-02-03T08:52:51.462Z,92.57
2019-02-03T08:55:19.671Z,88.97
2019-02-03T08:57:48.574Z,99.40
2019-02-03T09:00:22.489Z,93.20
2019-02-03T09:02:50.973Z,93.23
2019-02-03T09:05:21.358Z,86.93
2019-02-03T09:07:50.125Z,83.80
2019-02-03T09:10:20.784Z,85.73
2019-02-03T09:12:49.300Z,80.27
2019-02-03T09:15:20.569Z,81.17
2019-02-03T09:17:49.088Z,89.43
2019-02-03T09:20:23.188Z,86.87
2019-02-03T09:22:51.766Z,77.93
2019-02-03T09:25:20.302Z,70.50
2019-02-03T09:27:48.852Z,81.73
2019-02-03T09:30:23.170Z,67.70
2019-02-03T09:32:52.179Z,68.30
2019-02-03T09:35:20.602Z,69.83
2019-02-03T09:37:50.530Z,63.57
2019-02-03T09:40:21.726Z,66.03
2019-02-03T09:42:50.437Z,57.33
2019-02-03T09:45:21.993Z,62.07
2019-02-03T09:47:50.607Z,61.50
2019-02-03T09:50:30.875Z,60.83
2019-02-03T09:53:01.355Z,62.37
2019-02-03T09:55:30.311Z,60.10
2019-02-03T09:57:59.365Z,61.97
2019-02-03T10:00:30.458Z,59.90
2019-02-03T10:03:00.185Z,54.30
2019-02-03T10:05:28.772Z,51.80
2019-02-03T10:07:57.334Z,50.57
2019-02-03T10:10:33.988Z,52.17
2019-02-03T10:13:02.540Z,59.40
2019-02-03T10:15:31.120Z,59.53
2019-02-03T10:17:59.653Z,54.13
2019-02-03T10:20:28.463Z,46.60
2019-02-03T10:22:57.741Z,57.80
2019-02-03T10:25:31.221Z,52.53
2019-02-03T10:27:59.721Z,48.53
2019-02-03T10:30:28.390Z,50.77
2019-02-03T10:32:57.696Z,53.33
2019-02-03T10:35:28.834Z,54.57
2019-02-03T10:37:58.163Z,50.93
2019-02-03T10:40:35.471Z,56.53
2019-02-03T10:43:05.547Z,53.73
2019-02-03T10:45:34.075Z,45.30
2019-02-03T10:48:02.652Z,50.37
2019-02-03T10:50:36.831Z,53.20
2019-02-03T10:53:08.310Z,51.23
2019-02-03T10:55:36.826Z,51.80
2019-02-03T10:58:05.892Z,50.03
2019-02-03T11:00:39.548Z,41.87
2019-02-03T11:03:08.172Z,48.87
2019-02-03T11:05:42.735Z,49.90
2019-02-03T11:08:12.626Z,43.67
2019-02-03T11:10:41.188Z,46.50
2019-02-03T11:13:09.770Z,44.60
2019-02-03T11:15:38.355Z,40.60
2019-02-03T11:18:07.455Z,49.30
2019-02-03T11:20:36.170Z,45.33
2019-02-03T11:23:05.376Z,44.83
2019-02-03T11:25:34.260Z,43.83
2019-02-03T11:28:03.324Z,46.37
2019-02-03T11:30:33.005Z,45.43
2019-02-03T11:33:08.266Z,49.47
2019-02-03T11:35:32.725Z,41.33
2019-02-03T11:38:01.330Z,42.67
2019-02-03T11:40:32.288Z,43.60
2019-02-03T11:43:00.985Z,44.83
2019-02-03T11:45:32.460Z,42.23
2019-02-03T11:48:01.347Z,42.53
2019-02-03T11:50:36.423Z,40.03
2019-02-03T11:53:06.840Z,41.03
2019-02-03T11:55:35.325Z,40.73
2019-02-03T11:58:03.886Z,41.23
2019-02-03T12:00:33.080Z,39.67
2019-02-03T12:03:02.163Z,35.67
2019-02-03T12:05:33.535Z,37.03
2019-02-03T12:08:02.012Z,41.50
2019-02-03T12:10:31.185Z,36.87
2019-02-03T12:13:00.280Z,38.03
2019-02-03T12:15:28.974Z,33.60
2019-02-03T12:17:57.528Z,40.03
2019-02-03T12:20:26.117Z,34.53
2019-02-03T12:22:54.552Z,34.23
2019-02-03T12:25:26.063Z,32.03
2019-02-03T12:27:54.586Z,35.17
2019-02-03T12:30:29.695Z,31.03
2019-02-03T12:32:58.199Z,30.80
2019-02-03T12:35:26.644Z,30.37
2019-02-03T12:37:55.443Z,30.03
2019-02-03T12:40:29.821Z,28.00
2019-02-03T12:42:58.303Z,31.83
2019-02-03T12:45:27.668Z,30.27
2019-02-03T12:47:56.197Z,31.43
2019-02-03T12:50:24.761Z,29.57
2019-02-03T12:52:53.336Z,29.83
2019-02-03T12:55:30.418Z,26.93
2019-02-03T12:57:58.967Z,29.67
2019-02-03T13:00:30.082Z,33.13
2019-02-03T13:02:58.637Z,26.20
2019-02-03T13:05:28.567Z,30.27
2019-02-03T13:07:58.469Z,25.43
2019-02-03T13:10:32.408Z,23.13
2019-02-03T13:13:00.996Z,26.60
2019-02-03T13:15:32.642Z,26.17
2019-02-03T13:18:01.064Z,28.40
2019-02-03T13:20:31.430Z,27.00
2019-02-03T13:23:00.011Z,29.10
2019-02-03T13:25:28.676Z,27.80
2019-02-03T13:27:57.161Z,29.07
2019-02-03T13:30:31.107Z,25.67
2019-02-03T13:32:59.604Z,29.60
2019-02-03T13:35:28.291Z,25.97
2019-02-03T13:37:56.911Z,29.37
2019-02-03T13:40:26.131Z,23.77
2019-02-03T13:42:54.645Z,25.13
2019-02-03T13:45:27.170Z,27.90
2019-02-03T13:47:58.687Z,26.27
2019-02-03T13:50:29.010Z,25.97
2019-02-03T13:52:58.003Z,32.33
2019-02-03T13:55:28.226Z,29.67
2019-02-03T13:57:56.784Z,27.93
2019-02-03T14:00:34.023Z,28.27
2019-02-03T14:03:02.502Z,30.83
2019-02-03T14:05:30.973Z,30.30
2019-02-03T14:08:00.685Z,24.67
2019-02-03T14:10:34.777Z,27.80
2019-02-03T14:13:03.400Z,29.87
2019-02-03T14:15:32.367Z,26.03
2019-02-03T14:18:01.879Z,28.37
2019-02-03T14:20:31.911Z,26.43
2019-02-03T14:23:01.024Z,28.97
2019-02-03T14:25:30.377Z,26.50
2019-02-03T14:27:59.289Z,23.43
2019-02-03T14:30:40.494Z,25.20
2019-02-03T14:33:03.724Z,27.33
2019-02-03T14:35:33.099Z,27.70
2019-02-03T14:38:02.553Z,24.13
2019-02-03T14:40:31.079Z,26.50
2019-02-03T14:43:01.978Z,27.50
2019-02-03T14:45:29.954Z,22.37
2019-02-03T14:47:58.604Z,23.27
2019-02-03T14:50:28.011Z,24.17
2019-02-03T14:53:02.413Z,20.97
2019-02-03T14:55:33.962Z,23.10
2019-02-03T14:58:02.397Z,25.07
2019-02-03T15:00:33.743Z,25.47
2019-02-03T15:03:03.818Z,18.40
2019-02-03T15:05:32.340Z,14.00
2019-02-03T15:08:00.919Z,14.00
2019-02-03T15:10:30.428Z,12.73
2019-02-03T15:12:59.374Z,12.90
2019-02-03T15:15:30.050Z,13.30
2019-02-03T15:17:58.901Z,8.67
2019-02-03T15:20:28.924Z,10.17
2019-02-03T15:22:57.444Z,9.23
2019-02-03T15:25:26.017Z,8.07
2019-02-03T15:27:55.212Z,7.80
2019-02-03T15:30:29.537Z,6.37
2019-02-03T15:32:58.216Z,12.53
2019-02-03T15:35:26.829Z,7.33
2019-02-03T15:37:55.365Z,8.30
2019-02-03T15:40:25.503Z,7.10
2019-02-03T15:42:54.365Z,7.70
2019-02-03T15:45:25.335Z,9.13
2019-02-03T15:47:54.527Z,12.37
2019-02-03T15:50:27.240Z,6.20
2019-02-03T15:52:56.295Z,7.03
2019-02-03T15:55:27.649Z,9.13
2019-02-03T15:57:57.951Z,7.90
2019-02-03T16:00:28.812Z,8.57
2019-02-03T16:02:57.244Z,8.40
2019-02-03T16:05:27.332Z,7.37
2019-02-03T16:07:55.903Z,6.90
2019-02-03T16:10:26.995Z,8.10
2019-02-03T16:12:55.750Z,8.23
2019-02-03T16:15:24.955Z,8.73
2019-02-03T16:17:53.533Z,6.90
2019-02-03T16:20:28.819Z,8.07
2019-02-03T16:22:59.469Z,8.53
2019-02-03T16:25:27.979Z,7.67
2019-02-03T16:27:56.541Z,7.07
2019-02-03T16:30:30.788Z,9.57
2019-02-03T16:32:59.770Z,8.53
2019-02-03T16:35:28.330Z,9.77
2019-02-03T16:37:56.964Z,11.40
2019-02-03T16:40:30.616Z,9.87
2019-02-03T16:42:59.102Z,10.60
2019-02-03T16:45:27.799Z,9.27
2019-02-03T16:47:57.112Z,6.27
2019-02-03T16:50:28.763Z,10.13
2019-02-03T16:52:58.543Z,8.07
2019-02-03T16:55:27.553Z,9.83
2019-02-03T16:57:56.048Z,11.07
2019-02-03T17:00:32.036Z,9.67
2019-02-03T17:03:01.196Z,9.30
2019-02-03T17:05:31.328Z,11.30
2019-02-03T17:08:02.101Z,11.73
2019-02-03T17:10:30.706Z,14.93
2019-02-03T17:12:59.737Z,10.63
2019-02-03T17:15:40.375Z,12.87
2019-02-03T17:18:10.945Z,12.27
2019-02-03T17:20:39.489Z,11.30
2019-02-03T17:23:08.191Z,12.87
2019-02-03T17:25:40.071Z,13.80
2019-02-03T17:28:08.802Z,10.30
2019-02-03T17:30:37.282Z,12.03
2019-02-03T17:33:05.937Z,9.87
2019-02-03T17:35:34.505Z,16.73
2019-02-03T17:38:03.085Z,10.87
2019-02-03T17:40:31.671Z,13.50
2019-02-03T17:43:00.132Z,15.77
2019-02-03T17:45:29.017Z,12.43
2019-02-03T17:47:57.546Z,13.00
2019-02-03T17:50:28.683Z,12.23
2019-02-03T17:52:59.990Z,16.13
2019-02-03T17:55:28.823Z,14.07
2019-02-03T17:57:57.931Z,14.90
2019-02-03T18:00:32.561Z,12.57
2019-02-03T18:03:01.120Z,15.67
2019-02-03T18:05:30.122Z,14.50
2019-02-03T18:07:58.571Z,12.60
2019-02-03T18:10:27.602Z,12.53
2019-02-03T18:12:56.098Z,11.53
2019-02-03T18:15:24.770Z,14.13
2019-02-03T18:17:53.425Z,12.10
2019-02-03T18:20:24.385Z,15.33
2019-02-03T18:22:52.843Z,13.80
2019-02-03T18:25:21.683Z,11.87
2019-02-03T18:27:50.245Z,13.93
2019-02-03T18:30:27.254Z,15.53
2019-02-03T18:33:00.393Z,15.17
2019-02-03T18:35:30.345Z,16.53
2019-02-03T18:38:01.890Z,13.67
2019-02-03T18:40:30.555Z,16.00
2019-02-03T18:43:01.969Z,14.07
2019-02-03T18:45:29.493Z,15.90
2019-02-03T18:47:58.074Z,16.17
2019-02-03T18:50:26.619Z,12.90
2019-02-03T18:52:55.292Z,13.93
2019-02-03T18:55:32.879Z,15.70
2019-02-03T18:58:01.619Z,15.83
2019-02-03T19:00:32.872Z,12.40
2019-02-03T19:03:01.409Z,16.47
2019-02-03T19:05:33.230Z,17.50
2019-02-03T19:08:01.742Z,13.47
2019-02-03T19:10:32.834Z,16.53
2019-02-03T19:13:00.773Z,21.30
2019-02-03T19:15:32.366Z,14.53
2019-02-03T19:18:01.019Z,14.17
2019-02-03T19:20:32.293Z,14.20
2019-02-03T19:23:01.253Z,14.27
2019-02-03T19:25:29.805Z,13.63
2019-02-03T19:27:58.308Z,15.40
2019-02-03T19:30:27.295Z,12.00
2019-02-03T19:32:55.772Z,12.10
2019-02-03T19:35:27.388Z,16.07
2019-02-03T19:37:55.913Z,15.80
2019-02-03T19:40:26.883Z,18.37
2019-02-03T19:42:55.391Z,14.27
2019-02-03T19:45:27.093Z,10.57
2019-02-03T19:47:55.982Z,11.73
2019-02-03T19:50:33.319Z,13.30
2019-02-03T19:53:02.007Z,14.27
2019-02-03T19:55:30.653Z,16.77
2019-02-03T19:57:59.475Z,13.77
2019-02-03T20:00:30.840Z,12.73
2019-02-03T20:02:59.458Z,15.73
2019-02-03T20:05:28.162Z,12.23
2019-02-03T20:07:56.644Z,10.20
2019-02-03T20:10:27.471Z,14.73
2019-02-03T20:12:56.042Z,13.90
2019-02-03T20:15:24.665Z,13.20
2019-02-03T20:17:53.141Z,17.47
2019-02-03T20:20:32.704Z,16.93
2019-02-03T20:23:01.191Z,18.67
2019-02-03T20:25:30.231Z,16.23
2019-02-03T20:27:58.732Z,14.00
2019-02-03T20:30:38.116Z,10.73
2019-02-03T20:32:59.462Z,12.13
2019-02-03T20:35:29.935Z,12.27
2019-02-03T20:37:58.641Z,10.73
2019-02-03T20:40:32.831Z,12.80
2019-02-03T20:43:01.359Z,11.27
2019-02-03T20:45:30.283Z,13.53
2019-02-03T20:47:58.886Z,12.27
2019-02-03T20:50:28.080Z,15.07
2019-02-03T20:52:57.322Z,10.23
2019-02-03T20:55:25.970Z,12.03
2019-02-03T20:57:54.538Z,11.70
2019-02-03T21:00:34.974Z,10.70
2019-02-03T21:03:03.704Z,13.23
2019-02-03T21:05:32.949Z,11.13
2019-02-03T21:08:01.483Z,10.90
2019-02-03T21:10:30.080Z,14.17
2019-02-03T21:13:09.993Z,14.67
2019-02-03T21:15:33.611Z,13.00
2019-02-03T21:17:59.641Z,10.27
2019-02-03T21:20:33.664Z,14.43
2019-02-03T21:23:02.702Z,13.40
2019-02-03T21:25:31.700Z,12.20
2019-02-03T21:28:00.306Z,9.93
2019-02-03T21:30:31.518Z,7.20
2019-02-03T21:33:00.731Z,9.97
2019-02-03T21:35:29.515Z,9.57
2019-02-03T21:37:58.151Z,12.20
2019-02-03T21:40:31.470Z,15.73
2019-02-03T21:43:00.636Z,9.77
2019-02-03T21:45:29.170Z,9.73
2019-02-03T21:47:57.777Z,8.63
2019-02-03T21:50:28.521Z,17.83
2019-02-03T21:52:57.021Z,18.23
2019-02-03T21:55:25.788Z,13.50
2019-02-03T21:57:54.286Z,15.37
2019-02-03T22:00:25.322Z,12.80
2019-02-03T22:02:53.879Z,13.63
2019-02-03T22:05:26.180Z,13.43
2019-02-03T22:07:54.968Z,11.63
2019-02-03T22:10:25.861Z,10.23
2019-02-03T22:12:55.413Z,15.77
2019-02-03T22:15:24.132Z,13.20
2019-02-03T22:17:53.088Z,17.23
2019-02-03T22:20:23.376Z,9.60
2019-02-03T22:22:51.986Z,13.53
2019-02-03T22:25:20.435Z,14.80
2019-02-03T22:27:49.666Z,14.60
2019-02-03T22:30:26.751Z,10.77
2019-02-03T22:32:55.232Z,15.47
2019-02-03T22:35:23.737Z,16.97
2019-02-03T22:37:53.267Z,13.47
2019-02-03T22:40:22.419Z,13.43
2019-02-03T22:42:50.937Z,12.97
2019-02-03T22:45:21.930Z,14.10
2019-02-03T22:47:50.567Z,13.37
2019-02-03T22:50:21.882Z,13.00
2019-02-03T22:52:50.451Z,12.50
2019-02-03T22:55:19.244Z,14.77
2019-02-03T22:57:47.746Z,14.27
2019-02-03T23:00:32.805Z,17.73
2019-02-03T23:03:01.280Z,12.57
2019-02-03T23:05:30.194Z,10.77
2019-02-03T23:07:58.604Z,14.83
2019-02-03T23:10:27.071Z,15.30
2019-02-03T23:12:55.509Z,13.97
2019-02-03T23:15:23.918Z,14.17
2019-02-03T23:17:53.129Z,13.57
2019-02-03T23:20:22.042Z,12.33
2019-02-03T23:22:50.547Z,13.83
2019-02-03T23:25:18.976Z,12.47
2019-02-03T23:27:47.430Z,16.13
2019-02-03T23:30:17.599Z,19.73
2019-02-03T23:32:46.068Z,15.33
2019-02-03T23:35:14.782Z,14.30
2019-02-03T23:37:43.211Z,13.80
2019-02-03T23:40:19.412Z,13.80
2019-02-03T23:42:47.833Z,14.67
2019-02-03T23:45:17.456Z,15.67
2019-02-03T23:47:45.879Z,16.00
2019-02-03T23:50:22.131Z,15.00
2019-02-03T23:52:50.633Z,17.07
2019-02-03T23:55:19.230Z,11.13
2019-02-03T23:57:47.656Z,14.20
